CYRB

Details ICAO CYRB (YRB)
Name RESOLUTE BAY
Region Canada
Timezone America/Resolute (UTC-6.0)
Plans Departing 22
Arriving 33
Stats Elevation 215 ft / 66 m (AMSL)
Location 74.716900° -94.969334°
Runways 1
Magnetic Variation 22.671° W
Sunrise Unknown / Unknown
Sunset Unknown / Unknown
Advertisement - Login to hide

Runways

ID Width Length Bearing (true) Bearing (mag) Surface Threshold Offset Overrun Length
17T 200 ft / 61 m 6,482 ft / 1,976 m 166.69° 189.36° Gravel 0 ft / 0 m 0 ft / 0 m
35T 200 ft / 61 m 6,482 ft / 1,976 m 346.71° 9.38° Gravel 0 ft / 0 m 0 ft / 0 m

Map

Weather


0- 5 10 15 20 25 30 35+ Temperature / ° C

Clouds and Precipitation
Forecast for 2017-12-14 00:00 UTC. Updated 2 hours ago

Ground ~20,000 ft ~40,000 ft Winds

METAR

CYRB 132200Z 01002KT 15SM -SN OVC018 M22/M26 A2986 RMK SC8 SLP125

TAF

TAF CYRB 131738Z 1318/1418 34008KT P6SM -SN OVC050 TEMPO 1318/1322 6SM -SN SCT006 BKN015 OVC050 FM132200 17008KT P6SM OVC025 TEMPO 1322/1404 5SM -SN BR OVC012 FM140400 14010KT P6SM OVC020 TEMPO 1404/1415 3SM -SN BR OVC008 FM141500 10010KT P6SM OVC025 TEMPO 1415/1418 5SM -SN BR OVC012 RMK NXT FCST BY 140000Z
Warning: Do not use this data for real-world aviation or navigation. No guarantee of current accuracy is given.